createdAt,value
2017-07-06T00:00:30.945Z,1009.1
2017-07-06T00:01:32.320Z,1009.1
2017-07-06T00:02:33.692Z,1009.0
2017-07-06T00:03:35.065Z,1009.0
2017-07-06T00:04:36.439Z,1009.0
2017-07-06T00:05:37.810Z,1009.0
2017-07-06T00:06:39.184Z,1009.0
2017-07-06T00:07:40.557Z,1009.1
2017-07-06T00:08:41.934Z,1009.1
2017-07-06T00:09:43.311Z,1009.0
2017-07-06T00:10:44.683Z,1009.0
2017-07-06T00:11:46.057Z,1009.0
2017-07-06T00:12:47.430Z,1009.0
2017-07-06T00:13:48.802Z,1009.0
2017-07-06T00:14:50.177Z,1009.0
2017-07-06T00:15:51.548Z,1009.0
2017-07-06T00:16:52.920Z,1009.0
2017-07-06T00:17:54.296Z,1009.0
2017-07-06T00:18:55.676Z,1009.1
2017-07-06T00:19:57.046Z,1009.0
2017-07-06T00:20:58.419Z,1009.0
2017-07-06T00:21:59.790Z,1009.0
2017-07-06T00:23:01.163Z,1009.0
2017-07-06T00:24:02.534Z,1009.0
2017-07-06T00:25:03.910Z,1009.0
2017-07-06T00:26:05.283Z,1009.0
2017-07-06T00:27:06.665Z,1009.0
2017-07-06T00:28:08.060Z,1009.0
2017-07-06T00:29:09.433Z,1009.0
2017-07-06T00:30:10.806Z,1009.0
2017-07-06T00:31:12.187Z,1009.0
2017-07-06T00:32:13.558Z,1009.0
2017-07-06T00:33:14.934Z,1009.0
2017-07-06T00:34:16.312Z,1009.0
2017-07-06T00:35:17.685Z,1009.0
2017-07-06T00:36:19.054Z,1009.0
2017-07-06T00:37:20.429Z,1009.0
2017-07-06T00:38:21.800Z,1009.0
2017-07-06T00:39:23.177Z,1009.0
2017-07-06T00:40:24.551Z,1009.0
2017-07-06T00:41:25.922Z,1009.0
2017-07-06T00:42:27.297Z,1009.0
2017-07-06T00:43:28.668Z,1009.1
2017-07-06T00:44:30.042Z,1009.0
2017-07-06T00:45:31.415Z,1009.0
2017-07-06T00:46:32.786Z,1009.0
2017-07-06T00:47:34.162Z,1009.0
2017-07-06T00:48:35.539Z,1009.1
2017-07-06T00:49:36.910Z,1009.0
2017-07-06T00:50:38.281Z,1009.0
2017-07-06T00:51:39.651Z,1009.0
2017-07-06T00:52:41.025Z,1009.0
2017-07-06T00:53:42.401Z,1009.0
2017-07-06T00:54:43.773Z,1009.1
2017-07-06T00:55:45.149Z,1009.1
2017-07-06T00:56:46.524Z,1009.1
2017-07-06T00:57:47.897Z,1009.1
2017-07-06T00:58:49.272Z,1009.1
2017-07-06T00:59:50.647Z,1009.1
2017-07-06T01:00:52.022Z,1009.1
2017-07-06T01:01:53.397Z,1009.1
2017-07-06T01:02:54.774Z,1009.1
2017-07-06T01:03:56.143Z,1009.1
2017-07-06T01:04:57.516Z,1009.1
2017-07-06T01:05:58.893Z,1009.1
2017-07-06T01:07:00.266Z,1009.1
2017-07-06T01:08:01.638Z,1009.2
2017-07-06T01:09:03.006Z,1009.2
2017-07-06T01:10:04.382Z,1009.2
2017-07-06T01:11:05.758Z,1009.2
2017-07-06T01:12:07.138Z,1009.1
2017-07-06T01:13:08.510Z,1009.1
2017-07-06T01:14:09.888Z,1009.1
2017-07-06T01:15:11.268Z,1009.1
2017-07-06T01:16:12.630Z,1009.1
2017-07-06T01:17:14.011Z,1009.1
2017-07-06T01:18:15.392Z,1009.1
2017-07-06T01:19:16.766Z,1009.0
2017-07-06T01:20:18.141Z,1009.1
2017-07-06T01:21:19.513Z,1009.0
2017-07-06T01:22:20.888Z,1009.1
2017-07-06T01:23:22.260Z,1009.0
2017-07-06T01:24:23.636Z,1009.0
2017-07-06T01:25:25.043Z,1009.0
2017-07-06T01:26:26.420Z,1009.0
2017-07-06T01:27:27.798Z,1009.0
2017-07-06T01:28:29.171Z,1009.0
2017-07-06T01:29:30.543Z,1009.0
2017-07-06T01:30:31.915Z,1009.0
2017-07-06T01:31:33.293Z,1009.1
2017-07-06T01:32:34.666Z,1009.1
2017-07-06T01:33:36.037Z,1009.0
2017-07-06T01:34:37.407Z,1009.1
2017-07-06T01:35:38.781Z,1009.0
2017-07-06T01:36:40.153Z,1009.0
2017-07-06T01:37:41.527Z,1009.0
2017-07-06T01:38:42.904Z,1009.0
2017-07-06T01:39:44.275Z,1009.1
2017-07-06T01:40:45.650Z,1009.1
2017-07-06T01:41:47.023Z,1009.0
2017-07-06T01:42:48.399Z,1009.1
2017-07-06T01:43:49.770Z,1009.0
2017-07-06T01:44:51.145Z,1009.1
2017-07-06T01:45:52.520Z,1009.0
2017-07-06T01:46:53.901Z,1009.0
2017-07-06T01:47:55.268Z,1009.1
2017-07-06T01:48:56.642Z,1009.1
2017-07-06T01:49:58.014Z,1009.0
2017-07-06T01:50:59.389Z,1009.1
2017-07-06T01:52:00.762Z,1009.1
2017-07-06T01:53:02.137Z,1009.1
2017-07-06T01:54:03.511Z,1009.1
2017-07-06T01:55:04.880Z,1009.1
2017-07-06T01:56:06.253Z,1009.1
2017-07-06T01:57:07.630Z,1009.1
2017-07-06T01:58:09.009Z,1009.1
2017-07-06T01:59:10.388Z,1009.1
2017-07-06T02:00:11.764Z,1009.1
2017-07-06T02:01:13.133Z,1009.1
2017-07-06T02:02:14.504Z,1009.1
2017-07-06T02:03:15.876Z,1009.0
2017-07-06T02:04:17.248Z,1009.1
2017-07-06T02:05:18.623Z,1009.1
2017-07-06T02:06:19.993Z,1009.1
2017-07-06T02:07:21.366Z,1009.0
2017-07-06T02:08:22.739Z,1009.0
2017-07-06T02:09:24.112Z,1009.0
2017-07-06T02:10:25.492Z,1009.0
2017-07-06T02:11:26.866Z,1009.0
2017-07-06T02:12:28.237Z,1009.0
2017-07-06T02:13:29.614Z,1009.0
2017-07-06T02:14:30.989Z,1009.0
2017-07-06T02:15:32.361Z,1009.0
2017-07-06T02:16:33.733Z,1009.0
2017-07-06T02:17:35.109Z,1009.0
2017-07-06T02:18:36.485Z,1009.0
2017-07-06T02:19:37.857Z,1009.0
2017-07-06T02:20:39.230Z,1009.1
2017-07-06T02:21:40.605Z,1009.0
2017-07-06T02:22:41.984Z,1009.0
2017-07-06T02:23:43.354Z,1009.0
2017-07-06T02:24:44.727Z,1009.0
2017-07-06T02:25:46.099Z,1009.0
2017-07-06T02:26:47.475Z,1009.0
2017-07-06T02:27:48.847Z,1009.0
2017-07-06T02:28:50.220Z,1009.0
2017-07-06T02:29:51.594Z,1009.0
2017-07-06T02:30:52.964Z,1009.0
2017-07-06T02:31:54.335Z,1009.0
2017-07-06T02:32:55.708Z,1009.1
2017-07-06T02:33:57.089Z,1009.1
2017-07-06T02:34:58.461Z,1009.1
2017-07-06T02:35:59.838Z,1009.1
2017-07-06T02:37:01.208Z,1009.0
2017-07-06T02:38:02.578Z,1009.0
2017-07-06T02:39:03.950Z,1009.0
2017-07-06T02:40:05.323Z,1009.0
2017-07-06T02:41:06.701Z,1009.0
2017-07-06T02:42:08.075Z,1009.0
2017-07-06T02:43:09.445Z,1009.0
2017-07-06T02:44:10.821Z,1009.0
2017-07-06T02:45:12.191Z,1009.1
2017-07-06T02:46:13.564Z,1009.0
2017-07-06T02:47:14.943Z,1009.0
2017-07-06T02:48:16.315Z,1009.0
2017-07-06T02:49:17.690Z,1009.0
2017-07-06T02:50:19.059Z,1009.1
2017-07-06T02:51:20.436Z,1009.0
2017-07-06T02:52:21.817Z,1009.0
2017-07-06T02:53:23.193Z,1009.0
2017-07-06T02:54:24.563Z,1009.1
2017-07-06T02:55:25.938Z,1009.0
2017-07-06T02:56:27.310Z,1009.1
2017-07-06T02:57:28.685Z,1009.0
2017-07-06T02:58:30.062Z,1009.0
2017-07-06T02:59:31.433Z,1009.0
2017-07-06T03:00:32.810Z,1009.0
2017-07-06T03:01:34.181Z,1009.1
2017-07-06T03:02:35.559Z,1009.1
2017-07-06T03:03:36.931Z,1009.1
2017-07-06T03:04:38.308Z,1009.1
2017-07-06T03:05:39.683Z,1009.2
2017-07-06T03:06:41.053Z,1009.1
2017-07-06T03:07:42.429Z,1009.1
2017-07-06T03:08:43.805Z,1009.1
2017-07-06T03:09:45.176Z,1009.2
2017-07-06T03:10:46.550Z,1009.2
2017-07-06T03:11:47.925Z,1009.2
2017-07-06T03:12:49.301Z,1009.2
2017-07-06T03:13:50.676Z,1009.2
2017-07-06T03:14:52.050Z,1009.2
2017-07-06T03:15:53.423Z,1009.2
2017-07-06T03:16:54.804Z,1009.2
2017-07-06T03:17:56.179Z,1009.2
2017-07-06T03:18:57.555Z,1009.2
2017-07-06T03:19:59.022Z,1009.2
2017-07-06T03:21:00.393Z,1009.1
2017-07-06T03:22:01.771Z,1009.1
2017-07-06T03:23:03.141Z,1009.2
2017-07-06T03:24:04.515Z,1009.2
2017-07-06T03:25:05.891Z,1009.1
2017-07-06T03:26:07.284Z,1009.2
2017-07-06T03:27:08.660Z,1009.1
2017-07-06T03:28:10.031Z,1009.2
2017-07-06T03:29:11.407Z,1009.2
2017-07-06T03:30:12.780Z,1009.2
2017-07-06T03:31:14.159Z,1009.2
2017-07-06T03:32:15.533Z,1009.2
2017-07-06T03:33:16.909Z,1009.3
2017-07-06T03:34:18.281Z,1009.3
2017-07-06T03:35:19.656Z,1009.3
2017-07-06T03:36:21.031Z,1009.3
2017-07-06T03:37:22.403Z,1009.3
2017-07-06T03:38:23.778Z,1009.3
2017-07-06T03:39:25.153Z,1009.3
2017-07-06T03:40:26.530Z,1009.3
2017-07-06T03:41:27.905Z,1009.3
2017-07-06T03:42:29.274Z,1009.3
2017-07-06T03:43:30.653Z,1009.3
2017-07-06T03:44:32.029Z,1009.3
2017-07-06T03:45:33.400Z,1009.3
2017-07-06T03:46:34.793Z,1009.3
2017-07-06T03:47:36.175Z,1009.3
2017-07-06T03:48:37.542Z,1009.3
2017-07-06T03:49:38.915Z,1009.4
2017-07-06T03:50:40.296Z,1009.4
2017-07-06T03:51:41.668Z,1009.4
2017-07-06T03:52:43.043Z,1009.3
2017-07-06T03:53:44.415Z,1009.3
2017-07-06T03:54:45.799Z,1009.3
2017-07-06T03:55:47.168Z,1009.3
2017-07-06T03:56:48.545Z,1009.3
2017-07-06T03:57:49.914Z,1009.3
2017-07-06T03:58:51.296Z,1009.3
2017-07-06T03:59:52.672Z,1009.3
2017-07-06T04:00:54.047Z,1009.3
2017-07-06T04:01:55.424Z,1009.3
2017-07-06T04:02:56.799Z,1009.3
2017-07-06T04:03:58.170Z,1009.2
2017-07-06T04:04:59.549Z,1009.3
2017-07-06T04:06:00.932Z,1009.2
2017-07-06T04:07:02.298Z,1009.2
2017-07-06T04:08:03.675Z,1009.2
2017-07-06T04:09:05.048Z,1009.3
2017-07-06T04:10:06.429Z,1009.3
2017-07-06T04:11:07.800Z,1009.3
2017-07-06T04:12:09.188Z,1009.3
2017-07-06T04:13:10.565Z,1009.3
2017-07-06T04:14:11.938Z,1009.3
2017-07-06T04:15:13.313Z,1009.3
2017-07-06T04:16:14.864Z,1009.4
2017-07-06T04:17:16.237Z,1009.4
2017-07-06T04:18:17.609Z,1009.4
2017-07-06T04:19:18.987Z,1009.4
2017-07-06T04:20:20.527Z,1009.5
2017-07-06T04:21:21.904Z,1009.4
2017-07-06T04:22:23.282Z,1009.5
2017-07-06T04:23:24.655Z,1009.5
2017-07-06T04:24:26.030Z,1009.5
2017-07-06T04:25:27.404Z,1009.5
2017-07-06T04:26:28.779Z,1009.5
2017-07-06T04:27:30.161Z,1009.5
2017-07-06T04:28:31.533Z,1009.5
2017-07-06T04:29:32.912Z,1009.5
2017-07-06T04:30:34.290Z,1009.5
2017-07-06T04:31:38.460Z,1009.5
2017-07-06T04:32:39.843Z,1009.5
2017-07-06T04:33:41.221Z,1009.4
2017-07-06T04:34:42.881Z,1009.5
2017-07-06T04:35:44.259Z,1009.5
2017-07-06T04:36:45.641Z,1009.5
2017-07-06T04:37:47.017Z,1009.5
2017-07-06T04:38:48.411Z,1009.5
2017-07-06T04:39:49.784Z,1009.5
2017-07-06T04:40:51.162Z,1009.5
2017-07-06T04:41:52.565Z,1009.5
2017-07-06T04:42:53.940Z,1009.5
2017-07-06T04:43:55.333Z,1009.5
2017-07-06T04:44:57.572Z,1009.5
2017-07-06T04:45:58.947Z,1009.5
2017-07-06T04:47:00.327Z,1009.5
2017-07-06T04:48:01.701Z,1009.5
2017-07-06T04:49:03.077Z,1009.5
2017-07-06T04:50:04.455Z,1009.5
2017-07-06T04:51:05.874Z,1009.5
2017-07-06T04:52:07.257Z,1009.5
2017-07-06T04:53:08.627Z,1009.5
2017-07-06T04:54:10.006Z,1009.5
2017-07-06T04:55:11.395Z,1009.5
2017-07-06T04:56:12.767Z,1009.5
2017-07-06T04:57:14.144Z,1009.5
2017-07-06T04:58:15.520Z,1009.5
2017-07-06T04:59:16.899Z,1009.5
2017-07-06T05:00:18.396Z,1009.5
2017-07-06T05:01:19.773Z,1009.5
2017-07-06T05:02:21.142Z,1009.5
2017-07-06T05:03:22.523Z,1009.5
2017-07-06T05:04:23.897Z,1009.5
2017-07-06T05:05:25.276Z,1009.6
2017-07-06T05:06:26.710Z,1009.6
2017-07-06T05:07:28.085Z,1009.6
2017-07-06T05:08:29.460Z,1009.6
2017-07-06T05:09:30.841Z,1009.6
2017-07-06T05:10:32.216Z,1009.6
2017-07-06T05:11:33.591Z,1009.6
2017-07-06T05:12:34.967Z,1009.6
2017-07-06T05:13:36.346Z,1009.5
2017-07-06T05:14:37.721Z,1009.5
2017-07-06T05:15:39.094Z,1009.4
2017-07-06T05:16:40.476Z,1009.4
2017-07-06T05:17:41.851Z,1009.4
2017-07-06T05:18:43.226Z,1009.4
2017-07-06T05:19:44.603Z,1009.4
2017-07-06T05:20:45.984Z,1009.4
2017-07-06T05:21:47.357Z,1009.4
2017-07-06T05:22:48.733Z,1009.5
2017-07-06T05:23:50.112Z,1009.5
2017-07-06T05:24:51.489Z,1009.4
2017-07-06T05:25:52.868Z,1009.5
2017-07-06T05:26:54.258Z,1009.4
2017-07-06T05:27:55.684Z,1009.4
2017-07-06T05:28:57.013Z,1009.4
2017-07-06T05:29:58.386Z,1009.4
2017-07-06T05:30:59.759Z,1009.4
2017-07-06T05:32:01.201Z,1009.4
2017-07-06T05:33:02.518Z,1009.4
2017-07-06T05:34:03.895Z,1009.5
2017-07-06T05:35:05.285Z,1009.5
2017-07-06T05:36:06.659Z,1009.5
2017-07-06T05:37:08.034Z,1009.4
2017-07-06T05:38:09.409Z,1009.5
2017-07-06T05:39:10.786Z,1009.4
2017-07-06T05:40:12.165Z,1009.4
2017-07-06T05:41:13.543Z,1009.4
2017-07-06T05:42:14.926Z,1009.5
2017-07-06T05:43:16.302Z,1009.5
2017-07-06T05:44:17.675Z,1009.5
2017-07-06T05:45:19.054Z,1009.5
2017-07-06T05:46:20.429Z,1009.5
2017-07-06T05:47:21.805Z,1009.5
2017-07-06T05:48:23.186Z,1009.5
2017-07-06T05:49:24.565Z,1009.5
2017-07-06T05:50:25.936Z,1009.5
2017-07-06T05:51:27.315Z,1009.5
2017-07-06T05:52:28.689Z,1009.4
2017-07-06T05:53:30.068Z,1009.4
2017-07-06T05:54:31.443Z,1009.4
2017-07-06T05:55:32.819Z,1009.4
2017-07-06T05:56:34.199Z,1009.5
2017-07-06T05:57:35.574Z,1009.5
2017-07-06T05:58:36.952Z,1009.5
2017-07-06T05:59:38.327Z,1009.5
2017-07-06T06:00:39.704Z,1009.5
2017-07-06T06:01:41.080Z,1009.5
2017-07-06T06:02:42.459Z,1009.5
2017-07-06T06:03:43.839Z,1009.5
2017-07-06T06:04:45.213Z,1009.5
2017-07-06T06:05:46.588Z,1009.5
2017-07-06T06:06:47.968Z,1009.6
2017-07-06T06:07:49.397Z,1009.6
2017-07-06T06:08:50.719Z,1009.6
2017-07-06T06:09:52.098Z,1009.5
2017-07-06T06:10:53.475Z,1009.5
2017-07-06T06:11:54.848Z,1009.5
2017-07-06T06:12:56.228Z,1009.6
2017-07-06T06:13:57.601Z,1009.6
2017-07-06T06:14:58.979Z,1009.5
2017-07-06T06:16:00.357Z,1009.5
2017-07-06T06:17:01.748Z,1009.5
2017-07-06T06:18:03.112Z,1009.5
2017-07-06T06:19:04.488Z,1009.5
2017-07-06T06:20:05.903Z,1009.5
2017-07-06T06:21:07.278Z,1009.5
2017-07-06T06:22:08.653Z,1009.5
2017-07-06T06:23:10.034Z,1009.5
2017-07-06T06:24:11.412Z,1009.5
2017-07-06T06:25:12.788Z,1009.4
2017-07-06T06:26:14.167Z,1009.5
2017-07-06T06:27:15.542Z,1009.5
2017-07-06T06:28:16.918Z,1009.5
2017-07-06T06:29:18.302Z,1009.5
2017-07-06T06:30:19.674Z,1009.4
2017-07-06T06:31:21.055Z,1009.5
2017-07-06T06:32:22.430Z,1009.4
2017-07-06T06:33:23.808Z,1009.4
2017-07-06T06:34:25.182Z,1009.5
2017-07-06T06:35:26.558Z,1009.5
2017-07-06T06:36:27.934Z,1009.5
2017-07-06T06:37:29.315Z,1009.5
2017-07-06T06:38:30.691Z,1009.4
2017-07-06T06:39:32.069Z,1009.5
2017-07-06T06:40:33.444Z,1009.5
2017-07-06T06:41:34.821Z,1009.4
2017-07-06T06:42:36.196Z,1009.4
2017-07-06T06:43:37.572Z,1009.4
2017-07-06T06:44:38.951Z,1009.4
2017-07-06T06:45:40.328Z,1009.4
2017-07-06T06:46:41.704Z,1009.4
2017-07-06T06:47:43.080Z,1009.4
2017-07-06T06:48:44.460Z,1009.4
2017-07-06T06:49:45.828Z,1009.4
2017-07-06T06:50:47.209Z,1009.4
2017-07-06T06:51:48.585Z,1009.5
2017-07-06T06:52:49.961Z,1009.4
2017-07-06T06:53:51.345Z,1009.4
2017-07-06T06:54:52.714Z,1009.4
2017-07-06T06:55:54.091Z,1009.4
2017-07-06T06:56:55.469Z,1009.5
2017-07-06T06:57:56.845Z,1009.5
2017-07-06T06:58:58.220Z,1009.5
2017-07-06T06:59:59.600Z,1009.5
2017-07-06T07:01:00.975Z,1009.5
2017-07-06T07:02:02.351Z,1009.5
2017-07-06T07:03:03.728Z,1009.5
2017-07-06T07:04:05.106Z,1009.6
2017-07-06T07:05:06.483Z,1009.5
2017-07-06T07:06:07.860Z,1009.5
2017-07-06T07:07:09.238Z,1009.6
2017-07-06T07:08:10.615Z,1009.5
2017-07-06T07:09:11.991Z,1009.5
2017-07-06T07:10:13.367Z,1009.5
2017-07-06T07:11:14.741Z,1009.5
2017-07-06T07:12:16.208Z,1009.6
2017-07-06T07:13:17.534Z,1009.6
2017-07-06T07:14:18.960Z,1009.6
2017-07-06T07:15:20.293Z,1009.6
2017-07-06T07:16:21.667Z,1009.6
2017-07-06T07:17:23.041Z,1009.6
2017-07-06T07:18:24.421Z,1009.6
2017-07-06T07:19:25.800Z,1009.6
2017-07-06T07:20:27.175Z,1009.6
2017-07-06T07:21:28.554Z,1009.6
2017-07-06T07:22:29.930Z,1009.6
2017-07-06T07:23:31.309Z,1009.6
2017-07-06T07:24:32.681Z,1009.6
2017-07-06T07:25:34.054Z,1009.6
2017-07-06T07:26:35.433Z,1009.5
2017-07-06T07:27:36.807Z,1009.6
2017-07-06T07:28:38.184Z,1009.6
2017-07-06T07:29:39.563Z,1009.5
2017-07-06T07:30:40.935Z,1009.6
2017-07-06T07:31:42.310Z,1009.5
2017-07-06T07:32:43.689Z,1009.6
2017-07-06T07:33:45.067Z,1009.6
2017-07-06T07:34:46.441Z,1009.6
2017-07-06T07:35:47.819Z,1009.6
2017-07-06T07:36:49.194Z,1009.6
2017-07-06T07:37:50.574Z,1009.5
2017-07-06T07:38:51.951Z,1009.6
2017-07-06T07:39:53.325Z,1009.5
2017-07-06T07:40:54.701Z,1009.5
2017-07-06T07:41:56.076Z,1009.5
2017-07-06T07:42:57.451Z,1009.5
2017-07-06T07:43:58.830Z,1009.5
2017-07-06T07:45:00.206Z,1009.6
2017-07-06T07:46:01.585Z,1009.5
2017-07-06T07:47:02.961Z,1009.5
2017-07-06T07:48:04.340Z,1009.6
2017-07-06T07:49:05.717Z,1009.6
2017-07-06T07:50:07.092Z,1009.5
2017-07-06T07:51:08.468Z,1009.6
2017-07-06T07:52:09.842Z,1009.6
2017-07-06T07:53:11.216Z,1009.6
2017-07-06T07:54:12.593Z,1009.6
2017-07-06T07:55:13.971Z,1009.6
2017-07-06T07:56:15.344Z,1009.6
2017-07-06T07:57:16.723Z,1009.6
2017-07-06T07:58:18.099Z,1009.6
2017-07-06T07:59:19.472Z,1009.6
2017-07-06T08:00:20.848Z,1009.6
2017-07-06T08:01:22.224Z,1009.6
2017-07-06T08:02:23.606Z,1009.6
2017-07-06T08:03:24.982Z,1009.6
2017-07-06T08:04:26.358Z,1009.6
2017-07-06T08:05:27.735Z,1009.6
2017-07-06T08:06:29.113Z,1009.6
2017-07-06T08:07:30.485Z,1009.6
2017-07-06T08:08:31.862Z,1009.6
2017-07-06T08:09:33.241Z,1009.6
2017-07-06T08:10:34.615Z,1009.6
2017-07-06T08:11:35.993Z,1009.6
2017-07-06T08:12:37.371Z,1009.6
2017-07-06T08:13:38.745Z,1009.6
2017-07-06T08:14:40.121Z,1009.6
2017-07-06T08:15:41.496Z,1009.7
2017-07-06T08:16:42.872Z,1009.7
2017-07-06T08:17:44.248Z,1009.7
2017-07-06T08:18:45.624Z,1009.7
2017-07-06T08:19:47.003Z,1009.7
2017-07-06T08:20:48.375Z,1009.7
2017-07-06T08:21:49.753Z,1009.8
2017-07-06T08:22:51.128Z,1009.7
2017-07-06T08:23:52.502Z,1009.8
2017-07-06T08:24:53.881Z,1009.7
2017-07-06T08:25:55.259Z,1009.7
2017-07-06T08:26:56.634Z,1009.7
2017-07-06T08:27:58.009Z,1009.6
2017-07-06T08:28:59.385Z,1009.6
2017-07-06T08:30:00.762Z,1009.5
2017-07-06T08:31:02.139Z,1009.6
2017-07-06T08:32:03.516Z,1009.5
2017-07-06T08:33:04.891Z,1009.5
2017-07-06T08:34:06.269Z,1009.5
2017-07-06T08:35:07.646Z,1009.4
2017-07-06T08:36:09.020Z,1009.4
2017-07-06T08:37:10.398Z,1009.4
2017-07-06T08:38:11.773Z,1009.5
2017-07-06T08:39:13.151Z,1009.5
2017-07-06T08:40:14.528Z,1009.5
2017-07-06T08:41:15.905Z,1009.5
2017-07-06T08:42:17.278Z,1009.5
2017-07-06T08:43:18.658Z,1009.5
2017-07-06T08:44:20.034Z,1009.5
2017-07-06T08:45:21.407Z,1009.5
2017-07-06T08:46:22.786Z,1009.5
2017-07-06T08:47:24.162Z,1009.5
2017-07-06T08:48:25.542Z,1009.5
2017-07-06T08:49:26.917Z,1009.5
2017-07-06T08:50:28.291Z,1009.5
2017-07-06T08:51:29.667Z,1009.5
2017-07-06T08:52:31.048Z,1009.5
2017-07-06T08:53:32.419Z,1009.4
2017-07-06T08:54:33.804Z,1009.4
2017-07-06T08:55:35.183Z,1009.4
2017-07-06T08:56:36.564Z,1009.4
2017-07-06T08:57:37.941Z,1009.4
2017-07-06T08:58:39.318Z,1009.4
2017-07-06T08:59:40.690Z,1009.4
2017-07-06T09:00:42.070Z,1009.3
2017-07-06T09:01:43.450Z,1009.4
2017-07-06T09:02:44.825Z,1009.4
2017-07-06T09:03:46.199Z,1009.3
2017-07-06T09:04:47.574Z,1009.3
2017-07-06T09:05:48.950Z,1009.3
2017-07-06T09:06:50.323Z,1009.3
2017-07-06T09:07:51.702Z,1009.3
2017-07-06T09:08:53.079Z,1009.2
2017-07-06T09:09:54.454Z,1009.3
2017-07-06T09:10:55.831Z,1009.3
2017-07-06T09:11:57.214Z,1009.3
2017-07-06T09:12:58.585Z,1009.2
2017-07-06T09:13:59.964Z,1009.3
2017-07-06T09:15:01.338Z,1009.2
2017-07-06T09:16:02.714Z,1009.3
2017-07-06T09:17:04.093Z,1009.2
2017-07-06T09:18:05.474Z,1009.2
2017-07-06T09:19:06.856Z,1009.3
2017-07-06T09:20:08.230Z,1009.2
2017-07-06T09:21:09.604Z,1009.2
2017-07-06T09:22:10.983Z,1009.1
2017-07-06T09:23:12.357Z,1009.1
2017-07-06T09:24:13.734Z,1009.1
2017-07-06T09:25:15.110Z,1009.1
2017-07-06T09:26:16.484Z,1009.0
2017-07-06T09:27:17.863Z,1009.0
2017-07-06T09:28:19.240Z,1009.0
2017-07-06T09:29:20.618Z,1009.0
2017-07-06T09:30:21.993Z,1009.0
2017-07-06T09:31:23.377Z,1009.0
2017-07-06T09:32:24.751Z,1009.0
2017-07-06T09:33:26.127Z,1009.1
2017-07-06T09:34:27.505Z,1009.1
2017-07-06T09:35:28.882Z,1009.1
2017-07-06T09:36:30.260Z,1009.1
2017-07-06T09:37:31.637Z,1009.1
2017-07-06T09:38:33.010Z,1009.1
2017-07-06T09:39:34.386Z,1009.0
2017-07-06T09:40:35.764Z,1009.0
2017-07-06T09:41:37.141Z,1009.1
2017-07-06T09:42:38.516Z,1009.0
2017-07-06T09:43:39.895Z,1009.0
2017-07-06T09:44:41.268Z,1009.0
2017-07-06T09:45:42.651Z,1009.0
2017-07-06T09:46:44.024Z,1008.9
2017-07-06T09:47:45.404Z,1009.0
2017-07-06T09:48:46.799Z,1009.0
2017-07-06T09:49:48.152Z,1009.0
2017-07-06T09:50:49.535Z,1009.0
2017-07-06T09:51:50.911Z,1009.0
2017-07-06T09:52:52.287Z,1009.0
2017-07-06T09:53:53.661Z,1009.0
2017-07-06T09:54:55.092Z,1008.9
2017-07-06T09:55:56.413Z,1008.9
2017-07-06T09:56:57.790Z,1008.9
2017-07-06T09:57:59.167Z,1008.9
2017-07-06T09:59:00.547Z,1008.9
2017-07-06T10:00:01.920Z,1008.9
2017-07-06T10:01:03.295Z,1008.8
2017-07-06T10:02:04.672Z,1008.8
2017-07-06T10:03:06.048Z,1008.8
2017-07-06T10:04:07.423Z,1008.8
2017-07-06T10:05:08.803Z,1008.8
2017-07-06T10:06:10.175Z,1008.8
2017-07-06T10:07:11.554Z,1008.7
2017-07-06T10:08:12.931Z,1008.8
2017-07-06T10:09:14.302Z,1008.7
2017-07-06T10:10:15.678Z,1008.8
2017-07-06T10:11:17.055Z,1008.8
2017-07-06T10:12:18.432Z,1008.8
2017-07-06T10:13:19.811Z,1008.7
2017-07-06T10:14:21.184Z,1008.8
2017-07-06T10:15:22.561Z,1008.8
2017-07-06T10:16:23.935Z,1008.8
2017-07-06T10:17:25.313Z,1008.7
2017-07-06T10:18:26.691Z,1008.8
2017-07-06T10:19:28.064Z,1008.7
2017-07-06T10:20:29.445Z,1008.7
2017-07-06T10:21:30.822Z,1008.7
2017-07-06T10:22:32.194Z,1008.6
2017-07-06T10:23:33.571Z,1008.6
2017-07-06T10:24:34.946Z,1008.6
2017-07-06T10:25:36.324Z,1008.7
2017-07-06T10:26:37.699Z,1008.7
2017-07-06T10:27:39.073Z,1008.7
2017-07-06T10:28:40.450Z,1008.6
2017-07-06T10:29:41.877Z,1008.6
2017-07-06T10:30:43.203Z,1008.7
2017-07-06T10:31:44.578Z,1008.6
2017-07-06T10:32:45.953Z,1008.6
2017-07-06T10:33:47.329Z,1008.6
2017-07-06T10:34:48.706Z,1008.7
2017-07-06T10:35:50.081Z,1008.7
2017-07-06T10:36:51.457Z,1008.7
2017-07-06T10:37:52.830Z,1008.7
2017-07-06T10:38:54.204Z,1008.7
2017-07-06T10:39:55.581Z,1008.7
2017-07-06T10:40:56.953Z,1008.8
2017-07-06T10:41:58.329Z,1008.8
2017-07-06T10:42:59.707Z,1008.8
2017-07-06T10:44:01.081Z,1008.8
2017-07-06T10:45:02.461Z,1008.8
2017-07-06T10:46:03.840Z,1008.8
2017-07-06T10:47:05.213Z,1008.7
2017-07-06T10:48:06.589Z,1008.7
2017-07-06T10:49:07.966Z,1008.8
2017-07-06T10:50:09.341Z,1008.8
2017-07-06T10:51:10.715Z,1008.8
2017-07-06T10:52:12.092Z,1008.7
2017-07-06T10:53:13.472Z,1008.7
2017-07-06T10:54:14.847Z,1008.7
2017-07-06T10:55:16.220Z,1008.7
2017-07-06T10:56:17.602Z,1008.7
2017-07-06T10:57:18.999Z,1008.7
2017-07-06T10:58:20.369Z,1008.7
2017-07-06T10:59:21.786Z,1008.7
2017-07-06T11:00:23.119Z,1008.7
2017-07-06T11:01:24.494Z,1008.7
2017-07-06T11:02:26.424Z,1008.7
2017-07-06T11:03:27.799Z,1008.7
2017-07-06T11:04:29.175Z,1008.7
2017-07-06T11:05:30.550Z,1008.6
2017-07-06T11:06:31.925Z,1008.7
2017-07-06T11:07:33.305Z,1008.6
2017-07-06T11:08:34.680Z,1008.7
2017-07-06T11:09:36.059Z,1008.7
2017-07-06T11:10:37.437Z,1008.7
2017-07-06T11:11:38.810Z,1008.7
2017-07-06T11:12:40.188Z,1008.8
2017-07-06T11:13:41.563Z,1008.8
2017-07-06T11:14:42.943Z,1008.8
2017-07-06T11:15:44.318Z,1008.8
2017-07-06T11:16:45.695Z,1008.7
2017-07-06T11:17:47.073Z,1008.7
2017-07-06T11:18:48.449Z,1008.7
2017-07-06T11:19:49.823Z,1008.7
2017-07-06T11:20:51.197Z,1008.7
2017-07-06T11:21:52.571Z,1008.6
2017-07-06T11:22:53.946Z,1008.6
2017-07-06T11:23:55.322Z,1008.6
2017-07-06T11:24:56.695Z,1008.5
2017-07-06T11:25:58.073Z,1008.6
2017-07-06T11:26:59.448Z,1008.6
2017-07-06T11:28:00.822Z,1008.6
2017-07-06T11:29:02.199Z,1008.6
2017-07-06T11:30:03.573Z,1008.6
2017-07-06T11:31:04.949Z,1008.6
2017-07-06T11:32:06.324Z,1008.6
2017-07-06T11:33:07.705Z,1008.6
2017-07-06T11:34:09.079Z,1008.6
2017-07-06T11:35:10.454Z,1008.6
2017-07-06T11:36:11.831Z,1008.6
2017-07-06T11:37:13.206Z,1008.5
2017-07-06T11:38:14.581Z,1008.5
2017-07-06T11:39:15.957Z,1008.5
2017-07-06T11:40:17.334Z,1008.5
2017-07-06T11:41:18.707Z,1008.5
2017-07-06T11:42:20.822Z,1008.5
2017-07-06T11:43:22.197Z,1008.5
2017-07-06T11:44:23.572Z,1008.5
2017-07-06T11:45:24.953Z,1008.6
2017-07-06T11:46:26.326Z,1008.6
2017-07-06T11:47:27.704Z,1008.5
2017-07-06T11:48:29.078Z,1008.6
2017-07-06T11:49:30.453Z,1008.5
2017-07-06T11:50:31.827Z,1008.5
2017-07-06T11:51:33.204Z,1008.5
2017-07-06T11:52:34.579Z,1008.5
2017-07-06T11:53:35.958Z,1008.5
2017-07-06T11:54:37.327Z,1008.4
2017-07-06T11:55:38.711Z,1008.5
2017-07-06T11:56:40.089Z,1008.5
2017-07-06T11:57:41.461Z,1008.4
2017-07-06T11:58:42.837Z,1008.4
2017-07-06T11:59:44.215Z,1008.4
2017-07-06T12:00:45.588Z,1008.4
2017-07-06T12:01:46.978Z,1008.4
2017-07-06T12:02:48.353Z,1008.4
2017-07-06T12:03:49.729Z,1008.4
2017-07-06T12:04:51.106Z,1008.4
2017-07-06T12:05:52.480Z,1008.5
2017-07-06T12:06:53.861Z,1008.5
2017-07-06T12:07:55.241Z,1008.4
2017-07-06T12:08:56.620Z,1008.4
2017-07-06T12:09:57.991Z,1008.5
2017-07-06T12:10:59.365Z,1008.5
2017-07-06T12:12:00.741Z,1008.4
2017-07-06T12:13:02.121Z,1008.4
2017-07-06T12:14:03.498Z,1008.3
2017-07-06T12:15:04.874Z,1008.3
2017-07-06T12:16:06.251Z,1008.3
2017-07-06T12:17:07.637Z,1008.3
2017-07-06T12:18:09.011Z,1008.2
2017-07-06T12:19:10.388Z,1008.3
2017-07-06T12:20:11.766Z,1008.3
2017-07-06T12:21:13.138Z,1008.3
2017-07-06T12:22:14.518Z,1008.2
2017-07-06T12:23:15.894Z,1008.2
2017-07-06T12:24:17.277Z,1008.3
2017-07-06T12:25:18.641Z,1008.3
2017-07-06T12:26:20.017Z,1008.2
2017-07-06T12:27:21.393Z,1008.1
2017-07-06T12:28:22.770Z,1008.2
2017-07-06T12:29:24.149Z,1008.2
2017-07-06T12:30:25.525Z,1008.2
2017-07-06T12:31:26.900Z,1008.1
2017-07-06T12:32:28.275Z,1008.1
2017-07-06T12:33:29.654Z,1008.2
2017-07-06T12:34:31.026Z,1008.2
2017-07-06T12:35:32.463Z,1008.1
2017-07-06T12:36:33.785Z,1008.2
2017-07-06T12:37:35.166Z,1008.1
2017-07-06T12:38:36.543Z,1008.1
2017-07-06T12:39:37.914Z,1008.1
2017-07-06T12:40:39.291Z,1008.1
2017-07-06T12:41:40.668Z,1008.1
2017-07-06T12:42:42.047Z,1008.0
2017-07-06T12:43:43.426Z,1008.0
2017-07-06T12:44:44.810Z,1008.0
2017-07-06T12:45:46.171Z,1007.9